Time;durP1;ratioP1;P1;durP2;ratioP2;P2;SDS_P1;SDS_P2;PMS_P1;PMS_P2;Temp;Humidity;BMP_temperature;BMP_pressure;BME280_temperature;BME280_humidity;BME280_pressure;Samples;Min_cycle;Max_cycle;Signal;HPM_P1;HPM_P2
2021/12/17 00:05:06;;;;;;;7.50;3.55;;;6.30;99.90;;;;;;5000064;28;20248;-56
2021/12/17 00:07:35;;;;;;;6.93;4.72;;;6.40;99.90;;;;;;5001837;28;20277;-61
2021/12/17 00:10:10;;;;;;;14.00;4.97;;;6.30;99.90;;;;;;5002651;28;20414;-55
2021/12/17 00:12:37;;;;;;;11.18;3.63;;;6.30;99.90;;;;;;5001940;28;20298;-54
2021/12/17 00:15:06;;;;;;;20.23;5.20;;;6.30;99.90;;;;;;4999996;28;20205;-55
2021/12/17 00:17:37;;;;;;;10.98;5.72;;;6.40;99.90;;;;;;5005569;28;20202;-57
2021/12/17 00:53:25;;;;;;;6.22;3.50;;;6.40;99.90;;;;;;5001718;28;20217;-56
2021/12/17 00:55:52;;;;;;;10.30;3.97;;;6.30;99.90;;;;;;5000730;28;20205;-59
2021/12/17 00:58:20;;;;;;;6.15;3.55;;;6.30;99.90;;;;;;5004845;28;20264;-59
2021/12/17 01:00:47;;;;;;;4.78;3.60;;;6.30;99.90;;;;;;5001582;28;20197;-58
2021/12/17 01:03:15;;;;;;;11.38;4.30;;;6.30;99.90;;;;;;5002694;28;20221;-56
2021/12/17 01:05:43;;;;;;;8.32;4.93;;;6.20;99.90;;;;;;5000959;28;20243;-55
2021/12/17 01:08:10;;;;;;;13.57;5.78;;;6.20;99.90;;;;;;4999672;28;20291;-56
2021/12/17 01:10:49;;;;;;;7.40;3.72;;;6.20;99.90;;;;;;5006561;28;20201;-56
2021/12/17 01:13:16;;;;;;;7.40;3.28;;;6.20;99.90;;;;;;5003499;28;20263;-56
2021/12/17 01:15:44;;;;;;;11.77;4.72;;;6.20;99.90;;;;;;5000104;28;20201;-56
2021/12/17 01:18:16;;;;;;;9.30;5.00;;;6.10;99.90;;;;;;5000877;28;20225;-55
2021/12/17 01:40:54;;;;;;;10.13;5.45;;;6.10;99.90;;;;;;4999369;28;20240;-56
2021/12/17 01:43:13;;;;;;;10.35;3.63;;;6.10;99.90;;;;;;5000323;28;20224;-57
2021/12/17 01:45:42;;;;;;;8.13;5.00;;;6.10;99.90;;;;;;5001197;28;20210;-58
2021/12/17 01:48:17;;;;;;;11.52;4.60;;;6.10;99.90;;;;;;5000678;28;20232;-57
2021/12/17 01:56:38;;;;;;;11.65;4.80;;;6.20;99.90;;;;;;5000598;28;20507;-56
2021/12/17 01:59:26;;;;;;;11.82;4.75;;;6.20;99.90;;;;;;5000310;28;20255;-56
2021/12/17 02:02:02;;;;;;;7.80;5.43;;;6.20;99.90;;;;;;4998059;28;20225;-55
2021/12/17 02:04:31;;;;;;;5.68;3.80;;;6.10;99.90;;;;;;5000592;28;20255;-57
2021/12/17 02:07:00;;;;;;;11.85;5.55;;;6.10;99.90;;;;;;5000647;28;20208;-59
2021/12/17 02:29:17;;;;;;;10.52;5.93;;;6.10;99.90;;;;;;4998211;28;20225;-56
2021/12/17 02:31:45;;;;;;;5.53;4.00;;;6.10;99.90;;;;;;4998956;28;20241;-58
2021/12/17 02:37:05;;;;;;;10.75;4.05;;;6.00;99.90;;;;;;4991483;28;20581;-57
2021/12/17 02:47:31;;;;;;;8.13;4.75;;;6.10;99.90;;;;;;5000046;28;20274;-56
2021/12/17 02:49:58;;;;;;;8.93;3.55;;;6.10;99.90;;;;;;5010198;28;20232;-55
2021/12/17 02:52:29;;;;;;;14.25;4.25;;;6.10;99.90;;;;;;5010398;28;20217;-56
2021/12/17 02:54:58;;;;;;;7.95;4.53;;;6.10;99.90;;;;;;5004639;28;20514;-55
2021/12/17 02:57:27;;;;;;;11.63;5.10;;;6.10;99.90;;;;;;5006445;28;20208;-55
2021/12/17 02:59:55;;;;;;;9.40;3.80;;;6.10;99.90;;;;;;5003725;28;20239;-57
2021/12/17 03:02:25;;;;;;;5.32;3.22;;;6.00;99.90;;;;;;5006135;28;20341;-56
2021/12/17 03:04:54;;;;;;;7.78;2.55;;;6.00;99.90;;;;;;5002498;28;20213;-57
2021/12/17 03:07:21;;;;;;;10.20;3.60;;;6.10;99.90;;;;;;5006192;28;20247;-57
2021/12/17 03:12:35;;;;;;;7.60;3.50;;;6.10;99.90;;;;;;5006215;28;20783;-57
2021/12/17 03:15:13;;;;;;;4.30;3.88;;;6.10;99.90;;;;;;5004758;28;20299;-57
2021/12/17 03:23:39;;;;;;;12.25;3.58;;;6.10;99.90;;;;;;5004001;28;20232;-55
2021/12/17 03:26:12;;;;;;;5.95;3.50;;;6.20;99.90;;;;;;4999065;28;20231;-56
2021/12/17 03:28:42;;;;;;;13.43;4.07;;;6.10;99.90;;;;;;5005338;28;20228;-58
2021/12/17 03:31:10;;;;;;;7.20;4.00;;;6.10;99.90;;;;;;5005918;28;20264;-55
2021/12/17 03:33:42;;;;;;;4.20;2.65;;;6.10;99.90;;;;;;5006519;28;20460;-57
2021/12/17 03:36:15;;;;;;;8.00;4.00;;;6.10;99.90;;;;;;4999388;28;20256;-57
2021/12/17 03:38:43;;;;;;;8.23;3.60;;;6.10;99.90;;;;;;5004499;28;20251;-55
2021/12/17 03:43:39;;;;;;;11.10;4.38;;;6.10;99.90;;;;;;5005377;28;20451;-56
2021/12/17 03:46:07;;;;;;;2.13;1.92;;;6.10;99.90;;;;;;5006742;28;20263;-56
2021/12/17 03:48:37;;;;;;;5.95;4.95;;;6.10;99.90;;;;;;5005350;28;20291;-57
2021/12/17 03:51:11;;;;;;;9.75;5.45;;;6.10;99.90;;;;;;5006261;28;20396;-56
2021/12/17 03:53:39;;;;;;;7.60;5.35;;;6.10;99.90;;;;;;5005432;28;20229;-56
2021/12/17 03:56:07;;;;;;;12.50;4.47;;;6.10;99.90;;;;;;5006754;28;20265;-55
2021/12/17 03:58:34;;;;;;;3.92;3.20;;;6.10;99.90;;;;;;5006259;28;20205;-55
2021/12/17 04:01:03;;;;;;;8.65;5.05;;;6.20;99.90;;;;;;5008131;28;20580;-58
2021/12/17 04:03:30;;;;;;;14.88;4.97;;;6.10;99.90;;;;;;5005509;28;20225;-56
2021/12/17 04:05:58;;;;;;;12.00;4.82;;;6.10;99.90;;;;;;5005353;28;20292;-58
2021/12/17 04:08:25;;;;;;;6.93;4.00;;;6.10;99.90;;;;;;5003806;28;20217;-56
2021/12/17 04:11:01;;;;;;;13.45;4.25;;;6.10;99.90;;;;;;5004496;28;20348;-58
2021/12/17 04:13:35;;;;;;;11.88;4.40;;;6.10;99.90;;;;;;5002690;28;20290;-54
2021/12/17 04:16:07;;;;;;;9.32;3.50;;;6.10;99.90;;;;;;4995405;28;20243;-53
2021/12/17 04:18:40;;;;;;;5.85;4.07;;;6.10;99.90;;;;;;5003577;28;20399;-55
2021/12/17 04:21:15;;;;;;;4.82;3.58;;;6.10;99.90;;;;;;5003710;28;20578;-53
2021/12/17 04:23:43;;;;;;;8.65;4.72;;;6.20;99.90;;;;;;5004803;28;20220;-55
2021/12/17 04:26:13;;;;;;;11.18;3.80;;;6.20;99.90;;;;;;5004556;28;20209;-54
2021/12/17 04:28:45;;;;;;;7.75;3.38;;;6.10;99.90;;;;;;5006889;28;20249;-58
2021/12/17 04:31:15;;;;;;;5.20;3.58;;;6.10;99.90;;;;;;5010118;28;20389;-55
2021/12/17 04:33:43;;;;;;;7.80;4.20;;;6.10;99.90;;;;;;5006453;28;20218;-56
2021/12/17 04:36:15;;;;;;;9.80;3.75;;;6.10;99.90;;;;;;5001862;28;20197;-54
2021/12/17 04:38:42;;;;;;;9.27;4.30;;;6.10;99.90;;;;;;5000491;28;20193;-56
2021/12/17 04:41:38;;;;;;;9.57;4.35;;;6.10;99.90;;;;;;5001717;28;20205;-57
2021/12/17 04:44:06;;;;;;;10.93;4.57;;;6.10;99.90;;;;;;5002295;28;20211;-57
2021/12/17 04:57:34;;;;;;;4.68;3.58;;;6.00;99.90;;;;;;5000336;28;20205;-55
2021/12/17 05:00:05;;;;;;;9.95;3.38;;;5.90;99.90;;;;;;5001888;28;20273;-56
2021/12/17 05:02:38;;;;;;;7.90;3.80;;;6.00;99.90;;;;;;4992992;28;20255;-54
2021/12/17 05:05:08;;;;;;;7.00;4.35;;;6.00;99.90;;;;;;4997602;28;20208;-57
2021/12/17 05:07:40;;;;;;;7.63;4.18;;;6.00;99.90;;;;;;4990086;28;20277;-54
2021/12/17 05:10:30;;;;;;;17.05;4.38;;;6.00;99.90;;;;;;4997168;28;20399;-56
2021/12/17 05:18:43;;;;;;;11.27;6.97;;;5.80;99.90;;;;;;5001500;28;20263;-55
2021/12/17 05:21:11;;;;;;;4.65;3.22;;;5.80;99.90;;;;;;5002350;28;20205;-55
2021/12/17 05:23:42;;;;;;;9.25;5.63;;;5.80;99.90;;;;;;5001986;28;20415;-58
2021/12/17 05:26:13;;;;;;;12.50;5.47;;;5.70;99.90;;;;;;5001872;28;20474;-54
2021/12/17 05:28:40;;;;;;;8.98;5.90;;;5.60;99.90;;;;;;5000351;28;20220;-56
2021/12/17 05:31:08;;;;;;;7.38;4.22;;;5.60;99.90;;;;;;4993025;28;20244;-57
2021/12/17 05:33:35;;;;;;;8.82;3.85;;;5.60;99.90;;;;;;5001380;28;20256;-55
2021/12/17 05:36:03;;;;;;;7.60;6.45;;;5.70;99.90;;;;;;5001555;28;20212;-57
2021/12/17 05:38:30;;;;;;;9.52;4.32;;;5.70;99.90;;;;;;5001200;28;20243;-56
2021/12/17 05:40:58;;;;;;;8.75;3.88;;;5.80;99.90;;;;;;5001231;28;20204;-57
2021/12/17 05:43:25;;;;;;;8.60;5.15;;;5.80;99.90;;;;;;5001420;28;20263;-57
2021/12/17 05:48:27;;;;;;;7.00;4.72;;;5.80;99.90;;;;;;5001059;28;20228;-59
2021/12/17 05:50:59;;;;;;;8.05;4.65;;;5.80;99.90;;;;;;4994476;28;20251;-56
2021/12/17 05:53:28;;;;;;;7.22;3.40;;;5.80;99.90;;;;;;4986932;28;20271;-56
2021/12/17 05:55:56;;;;;;;3.38;3.08;;;5.80;99.90;;;;;;4989520;28;20237;-55
2021/12/17 05:58:27;;;;;;;6.88;3.88;;;5.80;99.90;;;;;;4998313;28;20209;-54
2021/12/17 06:00:54;;;;;;;9.73;2.90;;;5.80;99.90;;;;;;5001084;28;20577;-53
2021/12/17 06:03:23;;;;;;;7.20;3.65;;;5.80;99.90;;;;;;5000794;28;20232;-58
2021/12/17 06:05:51;;;;;;;5.05;3.17;;;5.80;99.90;;;;;;4989907;28;20190;-56
2021/12/17 06:08:18;;;;;;;12.75;4.15;;;5.70;99.90;;;;;;5002074;28;20224;-55
2021/12/17 06:10:46;;;;;;;7.35;3.85;;;5.70;99.90;;;;;;4999368;28;20198;-55
2021/12/17 06:13:13;;;;;;;5.72;3.80;;;5.60;99.90;;;;;;4985918;28;20229;-55
2021/12/17 06:15:40;;;;;;;4.30;3.75;;;5.50;99.90;;;;;;4990995;28;20198;-55
2021/12/17 06:18:07;;;;;;;8.30;3.70;;;5.40;99.90;;;;;;5000100;28;20449;-55
2021/12/17 06:20:35;;;;;;;15.48;5.28;;;5.40;99.90;;;;;;5000676;28;20211;-57
2021/12/17 06:23:02;;;;;;;9.90;4.32;;;5.40;99.90;;;;;;5001087;28;20224;-58
2021/12/17 06:25:29;;;;;;;8.05;4.30;;;5.40;99.90;;;;;;4999560;28;20244;-55
2021/12/17 06:27:57;;;;;;;7.15;4.00;;;5.40;99.90;;;;;;5000574;28;20204;-54
2021/12/17 06:30:24;;;;;;;18.67;4.53;;;5.50;99.90;;;;;;5000363;28;20240;-54
2021/12/17 06:32:52;;;;;;;10.00;5.13;;;5.50;99.90;;;;;;5000638;28;20235;-58
2021/12/17 06:35:20;;;;;;;11.63;4.95;;;5.50;99.90;;;;;;5001389;28;20206;-56
2021/12/17 06:37:47;;;;;;;7.05;4.05;;;5.50;99.90;;;;;;5001920;28;20225;-58
2021/12/17 06:40:14;;;;;;;8.40;4.68;;;5.50;99.90;;;;;;5000966;28;20201;-56
2021/12/17 06:42:44;;;;;;;7.40;3.85;;;5.50;99.90;;;;;;5000457;28;20229;-54
2021/12/17 06:45:20;;;;;;;5.43;3.13;;;5.50;99.90;;;;;;5000659;28;20204;-57
2021/12/17 06:47:55;;;;;;;11.27;4.57;;;5.60;99.90;;;;;;5000054;28;20557;-57
2021/12/17 07:18:42;;;;;;;9.90;4.60;;;5.80;99.90;;;;;;4999717;28;20425;-53
2021/12/17 07:23:51;;;;;;;4.90;3.30;;;5.80;99.90;;;;;;5000118;28;20583;-56
2021/12/17 07:34:41;;;;;;;19.02;4.22;;;5.80;99.90;;;;;;5000036;28;20198;-55
2021/12/17 07:39:36;;;;;;;6.25;2.90;;;5.80;99.90;;;;;;5003601;28;20208;-53
2021/12/17 07:42:03;;;;;;;12.13;5.75;;;6.00;99.90;;;;;;5004022;28;20233;-54
2021/12/17 07:44:31;;;;;;;4.90;3.63;;;6.00;99.90;;;;;;5003554;28;20204;-56
2021/12/17 07:46:58;;;;;;;5.97;3.33;;;6.00;99.90;;;;;;5010925;28;20220;-57
2021/12/17 07:49:25;;;;;;;4.40;3.20;;;6.00;99.90;;;;;;5010478;28;20305;-54
2021/12/17 07:51:52;;;;;;;5.32;4.15;;;6.00;99.90;;;;;;5003343;28;20264;-56
2021/12/17 07:54:20;;;;;;;15.60;4.88;;;5.90;99.90;;;;;;5004113;28;20408;-54
2021/12/17 07:56:47;;;;;;;9.85;3.72;;;5.90;99.90;;;;;;5002141;28;20240;-56
2021/12/17 07:59:14;;;;;;;8.13;3.30;;;5.90;99.90;;;;;;5003205;28;20201;-55
2021/12/17 08:01:42;;;;;;;5.43;3.42;;;5.90;99.90;;;;;;5002688;28;20268;-55
2021/12/17 08:04:10;;;;;;;10.95;4.03;;;5.90;99.90;;;;;;5001598;28;20264;-57
2021/12/17 08:06:38;;;;;;;3.22;2.72;;;5.90;99.90;;;;;;4991523;28;20523;-52
2021/12/17 08:09:05;;;;;;;8.43;3.10;;;5.90;99.90;;;;;;4983771;28;20328;-55
2021/12/17 08:11:38;;;;;;;5.32;3.05;;;5.90;99.90;;;;;;4989432;28;20292;-58
2021/12/17 08:14:11;;;;;;;5.22;3.80;;;5.90;99.90;;;;;;5002487;28;20515;-56
2021/12/17 08:16:58;;;;;;;11.50;3.55;;;5.90;99.90;;;;;;5003119;28;20476;-55
2021/12/17 08:32:44;;;;;;;4.55;2.55;;;5.90;99.90;;;;;;5005124;28;20249;-59
2021/12/17 08:35:13;;;;;;;8.32;2.50;;;6.00;99.90;;;;;;5005347;28;20224;-58
2021/12/17 08:37:42;;;;;;;7.38;3.40;;;5.90;99.90;;;;;;5003522;28;20246;-53
2021/12/17 08:40:10;;;;;;;6.35;3.50;;;6.00;99.90;;;;;;5002914;28;20300;-54
2021/12/17 08:42:37;;;;;;;4.95;3.35;;;5.90;99.90;;;;;;5002185;28;20602;-55
2021/12/17 08:45:07;;;;;;;7.57;3.78;;;5.90;99.90;;;;;;5002881;28;20317;-54
2021/12/17 08:47:36;;;;;;;10.15;4.70;;;5.90;99.90;;;;;;5001642;28;20236;-56
2021/12/17 08:50:06;;;;;;;9.55;3.95;;;5.90;99.90;;;;;;5002872;28;20237;-55
2021/12/17 08:52:34;;;;;;;5.35;3.03;;;5.90;99.90;;;;;;5002070;28;20588;-56
2021/12/17 08:55:03;;;;;;;9.70;3.55;;;5.90;99.90;;;;;;5002790;28;20206;-55
2021/12/17 08:57:34;;;;;;;9.95;4.38;;;5.90;99.90;;;;;;5000995;28;20201;-55
2021/12/17 09:00:05;;;;;;;6.35;5.68;;;5.90;99.90;;;;;;5002330;28;20205;-53
2021/12/17 09:02:35;;;;;;;4.13;3.58;;;5.90;99.90;;;;;;4994235;28;20245;-57
2021/12/17 09:05:05;;;;;;;9.38;4.22;;;5.90;99.90;;;;;;4994910;28;20516;-55
2021/12/17 09:07:32;;;;;;;5.78;3.40;;;5.90;99.90;;;;;;4992033;28;20457;-55
2021/12/17 09:10:04;;;;;;;5.63;3.53;;;5.90;99.90;;;;;;4993879;28;20468;-57
2021/12/17 09:12:31;;;;;;;8.93;4.18;;;5.90;99.90;;;;;;4996809;28;20260;-56
2021/12/17 09:14:58;;;;;;;6.05;3.40;;;6.00;99.90;;;;;;4995506;28;20212;-56
2021/12/17 09:17:26;;;;;;;7.90;4.43;;;6.10;99.90;;;;;;4994618;28;20274;-58
2021/12/17 09:19:53;;;;;;;8.23;4.43;;;6.20;99.90;;;;;;4985864;28;20236;-58
2021/12/17 09:22:21;;;;;;;11.63;3.47;;;6.30;99.90;;;;;;4997057;28;20232;-61
2021/12/17 09:24:49;;;;;;;10.02;4.38;;;6.30;99.90;;;;;;5005152;28;20208;-59
2021/12/17 09:27:16;;;;;;;4.93;4.40;;;6.30;99.90;;;;;;4994106;28;20206;-56
2021/12/17 09:29:45;;;;;;;14.20;5.15;;;6.30;99.90;;;;;;4986005;28;20546;-54
2021/12/17 09:32:12;;;;;;;14.45;5.45;;;6.30;99.90;;;;;;4982039;28;20484;-57
2021/12/17 09:34:40;;;;;;;4.07;3.10;;;6.30;99.90;;;;;;4990835;28;20251;-54
2021/12/17 09:37:08;;;;;;;9.98;4.35;;;6.30;99.90;;;;;;5001718;28;20220;-58
2021/12/17 09:39:35;;;;;;;8.25;3.83;;;6.40;99.90;;;;;;5001573;28;20324;-57
2021/12/17 09:42:03;;;;;;;8.30;3.38;;;6.30;99.90;;;;;;5001551;28;20278;-58
2021/12/17 09:44:30;;;;;;;6.43;3.13;;;6.20;99.90;;;;;;5000760;28;20243;-57
2021/12/17 09:46:59;;;;;;;3.67;2.88;;;6.20;99.90;;;;;;5001329;28;20212;-58
2021/12/17 09:49:26;;;;;;;3.63;3.10;;;6.30;99.90;;;;;;5000561;28;20221;-56
2021/12/17 09:51:56;;;;;;;7.88;3.00;;;6.20;99.90;;;;;;4992163;28;20457;-57
2021/12/17 09:54:24;;;;;;;15.77;2.90;;;6.20;99.90;;;;;;4981881;28;20571;-55
2021/12/17 09:56:51;;;;;;;4.50;2.40;;;6.30;99.90;;;;;;4998462;28;20267;-55
2021/12/17 09:59:22;;;;;;;8.88;3.30;;;6.30;99.90;;;;;;5000848;28;20508;-56
2021/12/17 10:01:50;;;;;;;6.53;3.85;;;6.30;99.90;;;;;;5000951;28;20263;-56
2021/12/17 10:04:28;;;;;;;5.85;3.28;;;6.20;99.90;;;;;;5001272;28;20252;-56
2021/12/17 10:07:26;;;;;;;6.57;3.20;;;6.30;99.90;;;;;;5000877;28;20224;-53
2021/12/17 10:10:02;;;;;;;6.90;3.85;;;6.40;99.90;;;;;;5000657;28;20225;-57
2021/12/17 10:12:35;;;;;;;6.20;3.65;;;6.40;99.90;;;;;;5000653;28;20221;-56
2021/12/17 10:15:08;;;;;;;7.18;4.00;;;6.50;99.90;;;;;;5001334;28;20516;-56
2021/12/17 10:17:48;;;;;;;8.13;3.60;;;6.50;99.90;;;;;;5000733;28;20280;-57
2021/12/17 10:20:16;;;;;;;6.57;2.92;;;6.50;99.90;;;;;;5001099;28;20205;-54
2021/12/17 10:22:53;;;;;;;11.27;4.93;;;6.40;99.90;;;;;;5000129;28;20302;-56
2021/12/17 10:25:21;;;;;;;6.93;3.83;;;6.40;99.90;;;;;;4997382;28;20266;-54
2021/12/17 10:27:56;;;;;;;4.45;3.47;;;6.40;99.90;;;;;;4980776;28;20264;-55
2021/12/17 10:30:23;;;;;;;15.07;4.82;;;6.50;99.90;;;;;;4981262;28;20214;-57
2021/12/17 10:32:53;;;;;;;7.80;3.63;;;6.60;99.90;;;;;;4981319;28;20465;-56
2021/12/17 10:35:26;;;;;;;9.63;3.63;;;6.70;99.90;;;;;;4981035;28;20217;-56
2021/12/17 10:37:57;;;;;;;5.10;3.03;;;6.70;99.90;;;;;;4981038;28;20202;-54
2021/12/17 10:40:33;;;;;;;5.10;3.03;;;6.60;99.90;;;;;;4981299;28;20213;-55
2021/12/17 10:43:21;;;;;;;5.40;2.47;;;6.60;99.90;;;;;;4980975;28;20225;-57
2021/12/17 10:46:28;;;;;;;4.05;3.75;;;6.60;99.90;;;;;;4980618;28;20202;-56
2021/12/17 10:51:42;;;;;;;2.67;2.47;;;6.60;99.90;;;;;;4995581;28;20224;-55
2021/12/17 10:54:19;;;;;;;4.97;3.90;;;6.60;99.90;;;;;;5000624;28;20201;-57
2021/12/17 10:56:48;;;;;;;6.43;3.35;;;6.70;99.90;;;;;;4981598;28;20508;-55
2021/12/17 10:59:27;;;;;;;2.95;2.67;;;6.60;99.90;;;;;;4980821;28;20516;-57
2021/12/17 11:02:00;;;;;;;5.90;3.08;;;6.50;99.90;;;;;;4979622;28;20258;-55
2021/12/17 11:04:29;;;;;;;7.57;3.65;;;6.50;99.90;;;;;;4981144;28;20205;-54
2021/12/17 11:07:02;;;;;;;5.45;2.53;;;6.50;99.90;;;;;;4990839;28;20201;-56
2021/12/17 11:10:02;;;;;;;7.15;4.07;;;6.50;99.90;;;;;;4983228;28;20229;-55
2021/12/17 11:12:38;;;;;;;6.45;3.35;;;6.50;99.90;;;;;;4987418;28;20406;-56
2021/12/17 11:15:11;;;;;;;6.00;3.88;;;6.50;99.90;;;;;;4984918;28;20206;-54
2021/12/17 11:17:41;;;;;;;6.30;3.80;;;6.60;99.90;;;;;;4984587;28;20201;-56
2021/12/17 11:20:12;;;;;;;4.93;3.15;;;6.60;99.90;;;;;;4984211;28;20197;-55
2021/12/17 11:22:41;;;;;;;9.63;3.03;;;6.60;99.90;;;;;;5000735;28;20275;-57
2021/12/17 11:25:09;;;;;;;7.10;3.75;;;6.60;99.90;;;;;;5004202;28;20475;-52
2021/12/17 11:27:37;;;;;;;4.75;3.20;;;6.50;99.90;;;;;;5003902;28;20204;-56
2021/12/17 11:30:32;;;;;;;7.75;3.80;;;6.50;99.90;;;;;;5003664;28;20471;-57
2021/12/17 11:33:01;;;;;;;4.45;2.67;;;6.60;99.90;;;;;;5002849;28;20424;-56
2021/12/17 11:35:31;;;;;;;10.90;2.80;;;6.50;99.90;;;;;;5003517;28;20190;-56
2021/12/17 11:38:10;;;;;;;5.03;2.90;;;6.60;99.90;;;;;;5003366;28;20247;-57
2021/12/17 11:40:43;;;;;;;5.30;3.28;;;6.60;99.90;;;;;;5002806;28;20214;-59
2021/12/17 11:43:23;;;;;;;4.70;3.17;;;6.60;99.90;;;;;;5003203;28;20275;-56
2021/12/17 11:46:00;;;;;;;8.48;3.00;;;6.50;99.90;;;;;;5003433;28;20280;-56
2021/12/17 11:48:30;;;;;;;3.60;2.10;;;6.50;99.90;;;;;;4999527;28;20418;-55
2021/12/17 11:51:11;;;;;;;6.40;2.80;;;6.50;99.90;;;;;;4998098;28;20233;-55
2021/12/17 11:54:10;;;;;;;6.93;2.67;;;6.50;99.90;;;;;;4995408;28;20244;-55
2021/12/17 11:56:54;;;;;;;4.78;2.13;;;6.50;99.90;;;;;;4986713;28;20338;-59
2021/12/17 11:59:32;;;;;;;4.38;2.67;;;6.60;99.90;;;;;;4985884;28;20409;-57
2021/12/17 12:02:11;;;;;;;4.85;2.00;;;6.50;99.90;;;;;;4984077;28;20288;-57
2021/12/17 12:04:42;;;;;;;6.25;3.20;;;6.40;99.90;;;;;;4983884;28;20210;-56
2021/12/17 12:07:15;;;;;;;5.20;2.78;;;6.40;99.90;;;;;;4984224;28;20450;-55
2021/12/17 12:09:58;;;;;;;6.95;3.83;;;6.30;99.90;;;;;;4983282;28;20241;-57
2021/12/17 12:12:29;;;;;;;5.30;2.78;;;6.30;99.90;;;;;;4984184;28;20227;-54
2021/12/17 12:15:20;;;;;;;6.20;2.88;;;6.30;99.90;;;;;;4983978;28;20266;-53
2021/12/17 12:18:08;;;;;;;5.70;3.03;;;6.30;99.90;;;;;;4987349;28;20220;-58
2021/12/17 12:20:58;;;;;;;5.10;3.90;;;6.30;99.90;;;;;;4990587;28;20470;-55
2021/12/17 12:23:31;;;;;;;8.18;2.90;;;6.40;99.90;;;;;;4987955;28;20268;-58
2021/12/17 12:26:01;;;;;;;7.40;3.17;;;6.30;99.90;;;;;;5000147;28;20201;-58
2021/12/17 12:28:55;;;;;;;3.38;2.50;;;6.40;99.90;;;;;;5010184;28;20248;-56
2021/12/17 12:31:32;;;;;;;5.40;3.38;;;6.50;99.90;;;;;;5004381;28;20284;-56
2021/12/17 12:34:05;;;;;;;5.15;2.95;;;6.50;99.90;;;;;;5003861;28;20233;-56
2021/12/17 12:36:58;;;;;;;4.70;3.00;;;6.40;99.90;;;;;;5003423;28;20196;-54
2021/12/17 12:39:33;;;;;;;7.15;3.28;;;6.40;99.90;;;;;;5002809;28;20406;-54
2021/12/17 12:42:11;;;;;;;4.05;2.45;;;6.40;99.90;;;;;;5003283;28;20437;-55
2021/12/17 12:44:44;;;;;;;8.13;3.35;;;6.30;99.90;;;;;;5003460;28;20403;-54
2021/12/17 12:47:19;;;;;;;6.00;3.55;;;6.30;99.90;;;;;;5006617;28;20201;-57
2021/12/17 12:49:46;;;;;;;2.88;2.33;;;6.30;99.90;;;;;;4995762;28;20496;-59
2021/12/17 12:52:33;;;;;;;3.15;2.38;;;6.30;99.90;;;;;;5003158;28;20224;-58
2021/12/17 12:55:07;;;;;;;2.70;2.50;;;6.20;99.90;;;;;;4998359;28;20220;-57
2021/12/17 12:57:37;;;;;;;2.47;2.28;;;6.30;99.90;;;;;;4983643;28;20200;-57
2021/12/17 13:00:06;;;;;;;4.43;2.97;;;6.30;99.90;;;;;;4982644;28;20202;-59
2021/12/17 13:02:34;;;;;;;6.82;3.05;;;6.20;99.90;;;;;;4982694;28;20457;-56
2021/12/17 13:05:06;;;;;;;6.85;2.10;;;6.20;99.90;;;;;;4983145;28;20209;-54
2021/12/17 13:07:36;;;;;;;2.42;2.22;;;6.10;99.90;;;;;;4982459;28;20244;-57
2021/12/17 13:10:22;;;;;;;6.47;2.70;;;6.00;99.90;;;;;;4982508;28;20284;-56
2021/12/17 13:13:15;;;;;;;4.35;2.85;;;5.90;99.90;;;;;;4982790;28;20297;-57
2021/12/17 13:15:50;;;;;;;3.42;2.58;;;5.90;99.90;;;;;;4982537;28;20241;-57
2021/12/17 13:24:25;;;;;;;3.20;2.47;;;5.90;99.90;;;;;;4982217;28;20256;-56
2021/12/17 13:26:54;;;;;;;3.17;2.88;;;5.90;99.90;;;;;;4998644;28;20205;-58
2021/12/17 13:29:29;;;;;;;4.45;2.55;;;5.90;99.90;;;;;;5001932;28;20209;-58
2021/12/17 13:32:01;;;;;;;3.63;1.98;;;5.80;99.90;;;;;;5001485;28;20562;-55
2021/12/17 13:34:36;;;;;;;3.08;2.83;;;5.80;99.90;;;;;;5001131;28;20197;-60
2021/12/17 13:37:18;;;;;;;4.65;2.70;;;5.80;99.90;;;;;;5001972;28;20204;-57
2021/12/17 13:39:57;;;;;;;6.78;3.28;;;5.80;99.90;;;;;;5000890;28;20232;-57
2021/12/17 13:42:33;;;;;;;2.50;2.30;;;5.80;99.90;;;;;;5002510;28;20220;-58
2021/12/17 13:45:01;;;;;;;2.22;2.05;;;5.70;99.90;;;;;;5001665;28;20395;-55
2021/12/17 13:47:31;;;;;;;6.50;2.40;;;5.80;99.90;;;;;;4999746;28;20201;-56
2021/12/17 13:50:04;;;;;;;5.00;2.22;;;5.80;99.90;;;;;;4993226;28;20197;-59
2021/12/17 13:53:00;;;;;;;2.83;2.60;;;5.80;99.90;;;;;;5000885;28;20220;-54
2021/12/17 13:55:37;;;;;;;5.18;2.38;;;5.70;99.90;;;;;;4993457;28;20256;-54
2021/12/17 13:58:13;;;;;;;3.63;2.55;;;5.60;99.90;;;;;;4981507;28;20201;-57
2021/12/17 14:00:46;;;;;;;2.38;2.17;;;5.60;99.90;;;;;;4981711;28;20486;-59
2021/12/17 14:03:15;;;;;;;8.52;2.80;;;5.60;99.90;;;;;;4981953;28;20232;-58
2021/12/17 14:05:50;;;;;;;5.57;2.80;;;5.60;99.90;;;;;;4981986;28;20205;-54
2021/12/17 14:08:20;;;;;;;4.78;2.97;;;5.60;99.90;;;;;;4981693;28;20197;-58
2021/12/17 14:10:49;;;;;;;2.08;1.88;;;5.60;99.90;;;;;;4981382;28;20226;-60
2021/12/17 14:13:27;;;;;;;5.00;2.35;;;5.60;99.90;;;;;;4981549;28;20226;-55
2021/12/17 14:16:02;;;;;;;6.60;3.65;;;5.60;99.90;;;;;;4991410;28;20519;-57
2021/12/17 14:18:30;;;;;;;6.45;2.53;;;5.50;99.90;;;;;;4992782;28;20220;-60
2021/12/17 14:21:03;;;;;;;6.88;3.17;;;5.50;99.90;;;;;;4992589;28;20205;-57
2021/12/17 14:23:32;;;;;;;3.65;2.40;;;5.50;99.90;;;;;;4986975;28;20315;-58
2021/12/17 14:26:05;;;;;;;7.72;2.97;;;5.50;99.90;;;;;;4993699;28;20507;-57
2021/12/17 14:28:38;;;;;;;3.10;2.80;;;5.50;99.90;;;;;;4991321;28;20211;-55
2021/12/17 14:31:15;;;;;;;5.88;2.53;;;5.50;99.90;;;;;;5000194;28;20456;-56
2021/12/17 14:33:59;;;;;;;5.35;3.38;;;5.50;99.90;;;;;;4988418;28;20227;-59
2021/12/17 14:36:31;;;;;;;4.60;3.10;;;5.50;99.90;;;;;;4984728;28;20201;-58
2021/12/17 14:39:14;;;;;;;4.30;2.60;;;5.50;99.90;;;;;;4980643;28;20206;-58
2021/12/17 14:41:59;;;;;;;6.53;3.38;;;5.50;99.90;;;;;;4985551;28;20558;-58
2021/12/17 14:47:30;;;;;;;7.68;3.20;;;5.50;99.90;;;;;;4986109;28;20215;-56
2021/12/17 15:01:34;;;;;;;7.13;3.53;;;5.40;99.90;;;;;;4982099;28;20201;-57
2021/12/17 15:04:00;;;;;;;4.85;3.80;;;5.40;99.90;;;;;;4982661;28;20194;-56
2021/12/17 15:06:28;;;;;;;3.97;3.67;;;5.40;99.90;;;;;;4983810;28;20484;-58
2021/12/17 15:08:57;;;;;;;8.95;3.80;;;5.40;99.90;;;;;;4984184;28;20201;-58
2021/12/17 15:11:28;;;;;;;8.82;4.50;;;5.40;99.90;;;;;;4985373;28;20236;-55
2021/12/17 15:13:55;;;;;;;9.95;4.40;;;5.30;99.90;;;;;;4982488;28;20227;-56
2021/12/17 15:16:23;;;;;;;6.15;4.47;;;5.40;99.90;;;;;;4987455;28;20200;-56
2021/12/17 15:18:50;;;;;;;7.82;3.67;;;5.40;99.90;;;;;;4999290;28;20211;-57
2021/12/17 15:21:17;;;;;;;6.75;3.53;;;5.40;99.90;;;;;;4999935;28;20476;-57
2021/12/17 15:23:45;;;;;;;4.95;3.28;;;5.40;99.90;;;;;;4988129;28;20276;-54
2021/12/17 15:26:12;;;;;;;8.70;4.38;;;5.40;99.90;;;;;;4986650;28;20445;-56
2021/12/17 15:28:39;;;;;;;7.85;4.38;;;5.30;99.90;;;;;;4988674;28;20436;-58
2021/12/17 15:31:26;;;;;;;6.40;3.75;;;5.40;99.90;;;;;;4991256;28;20450;-55
2021/12/17 15:33:53;;;;;;;3.70;3.35;;;5.40;99.90;;;;;;4997822;28;20232;-55
2021/12/17 15:36:21;;;;;;;7.40;2.80;;;5.40;99.90;;;;;;5003496;28;20248;-56
2021/12/17 15:38:48;;;;;;;6.40;3.42;;;5.40;99.90;;;;;;4995908;28;20201;-57
2021/12/17 15:41:16;;;;;;;5.95;3.83;;;5.40;99.90;;;;;;4997932;28;20258;-58
2021/12/17 15:43:43;;;;;;;8.63;4.95;;;5.40;99.90;;;;;;4999528;28;20289;-56
2021/12/17 15:46:10;;;;;;;10.70;4.03;;;5.40;99.90;;;;;;4999435;28;20198;-56
2021/12/17 15:48:37;;;;;;;6.78;4.20;;;5.30;99.90;;;;;;4999331;28;20240;-57
2021/12/17 15:51:06;;;;;;;7.03;3.67;;;5.20;99.90;;;;;;4985400;28;20225;-55
2021/12/17 15:53:34;;;;;;;4.80;3.20;;;5.20;99.90;;;;;;4979568;28;20224;-57
2021/12/17 15:56:03;;;;;;;7.95;3.28;;;5.20;99.90;;;;;;4989990;28;20621;-54
2021/12/17 15:58:30;;;;;;;7.85;4.43;;;5.20;99.90;;;;;;4993712;28;20205;-59
2021/12/17 16:00:57;;;;;;;8.38;3.72;;;5.20;99.90;;;;;;5000400;28;20213;-57
2021/12/17 16:03:32;;;;;;;9.30;3.58;;;5.20;99.90;;;;;;5000685;28;20232;-57
2021/12/17 16:06:03;;;;;;;11.90;5.05;;;5.20;99.90;;;;;;5004802;28;20260;-58
2021/12/17 16:08:34;;;;;;;5.72;3.47;;;5.10;99.90;;;;;;5007183;28;20204;-54
2021/12/17 16:11:19;;;;;;;4.95;3.50;;;5.10;99.90;;;;;;4998091;28;20248;-56
2021/12/17 16:16:54;;;;;;;6.20;3.80;;;5.10;99.90;;;;;;4991439;28;20209;-59
2021/12/17 16:22:21;;;;;;;5.32;4.60;;;5.00;99.90;;;;;;5003552;28;20329;-54
2021/12/17 16:24:48;;;;;;;9.80;4.20;;;4.90;99.90;;;;;;4983628;28;20241;-55
2021/12/17 16:27:16;;;;;;;4.15;3.38;;;4.80;99.90;;;;;;5002718;28;20232;-54
2021/12/17 16:29:43;;;;;;;7.97;4.75;;;4.70;99.90;;;;;;5002441;28;20453;-59
2021/12/17 16:32:10;;;;;;;10.43;5.28;;;4.50;99.90;;;;;;5000258;28;20559;-57
2021/12/17 16:34:37;;;;;;;7.80;2.95;;;4.50;99.90;;;;;;5017665;28;20229;-56
2021/12/17 16:37:04;;;;;;;5.05;3.38;;;4.40;99.90;;;;;;4994895;28;20203;-56
2021/12/17 16:39:34;;;;;;;11.02;5.20;;;4.40;99.90;;;;;;5002131;28;20204;-54
2021/12/17 16:42:02;;;;;;;7.25;4.60;;;4.30;99.90;;;;;;5002263;28;20303;-55
2021/12/17 16:44:43;;;;;;;5.15;4.05;;;4.30;99.90;;;;;;5001509;28;20219;-54
2021/12/17 16:47:28;;;;;;;5.75;4.32;;;4.30;99.90;;;;;;4986161;28;20202;-57